TimeMST,TemperatureF,Dew PointF,Humidity,Sea Level PressureIn,VisibilityMPH,Wind Direction,Wind SpeedMPH,Gust SpeedMPH,PrecipitationIn,Events,Conditions,WindDirDegrees,DateUTC
12:53 AM,19.9,7.0,57,30.05,10.0,WNW,6.9,-,N/A,,Mostly Cloudy,300,2014-02-20 07:53:00
1:53 AM,19.0,8.1,62,30.09,10.0,Calm,Calm,-,N/A,,Overcast,0,2014-02-20 08:53:00
2:53 AM,19.9,9.0,62,30.11,10.0,Calm,Calm,-,N/A,,Overcast,0,2014-02-20 09:53:00
3:53 AM,18.0,9.0,68,30.14,10.0,WSW,6.9,-,N/A,,Overcast,250,2014-02-20 10:53:00
4:39 AM,19.0,12.9,77,29.97,2.5,West,4.6,-,0.00,Snow,Light Snow,260,2014-02-20 11:39:00
4:48 AM,17.6,12.2,79,29.97,4.0,NNE,5.8,-,0.00,Snow,Light Snow,20,2014-02-20 11:48:00
4:53 AM,17.1,12.0,81,30.15,8.0,NNE,5.8,-,0.00,,Mostly Cloudy,30,2014-02-20 11:53:00
5:53 AM,12.9,10.0,88,30.19,10.0,South,3.5,-,N/A,,Overcast,180,2014-02-20 12:53:00
6:53 AM,12.9,6.1,74,30.17,10.0,SE,5.8,-,N/A,,Overcast,130,2014-02-20 13:53:00
7:53 AM,10.0,3.9,76,30.17,10.0,ESE,3.5,-,N/A,,Partly Cloudy,120,2014-02-20 14:53:00
8:53 AM,14.0,6.1,71,30.14,10.0,ESE,3.5,-,N/A,,Overcast,110,2014-02-20 15:53:00
9:53 AM,24.1,8.1,51,30.09,10.0,ESE,3.5,-,N/A,,Mostly Cloudy,110,2014-02-20 16:53:00
10:53 AM,25.0,10.0,53,30.05,10.0,South,6.9,-,N/A,,Overcast,190,2014-02-20 17:53:00
11:53 AM,28.0,10.0,47,30.01,10.0,SW,11.5,18.4,N/A,,Overcast,220,2014-02-20 18:53:00
12:53 PM,28.0,12.0,51,29.97,10.0,West,4.6,-,N/A,,Overcast,270,2014-02-20 19:53:00
1:53 PM,28.9,15.1,56,29.93,10.0,SW,11.5,19.6,N/A,,Mostly Cloudy,230,2014-02-20 20:53:00
2:53 PM,30.0,16.0,56,29.91,10.0,SW,16.1,21.9,N/A,,Mostly Cloudy,230,2014-02-20 21:53:00
3:53 PM,30.0,17.1,59,29.90,10.0,SW,11.5,-,N/A,,Overcast,230,2014-02-20 22:53:00
4:53 PM,28.9,18.0,64,29.91,10.0,WSW,8.1,16.1,N/A,,Overcast,240,2014-02-20 23:53:00
5:53 PM,28.9,17.1,61,29.92,10.0,WSW,8.1,-,N/A,,Overcast,250,2014-02-21 00:53:00
6:53 PM,28.9,16.0,58,29.94,10.0,West,10.4,-,N/A,,Overcast,280,2014-02-21 01:53:00
7:28 PM,25.0,21.0,85,29.81,1.8,WNW,17.3,-,0.00,Snow,Light Snow,300,2014-02-21 02:28:00
7:43 PM,25.0,19.9,81,29.81,1.2,WNW,15.0,24.2,0.00,Snow,Light Snow,300,2014-02-21 02:43:00
7:53 PM,24.1,21.0,88,30.00,1.2,NW,11.5,23.0,0.00,Snow,Light Snow,310,2014-02-21 02:53:00
7:58 PM,24.1,21.0,88,29.81,3.0,NW,12.7,-,0.00,Snow,Light Snow,320,2014-02-21 02:58:00
8:19 PM,23.0,19.9,88,29.82,10.0,NNW,5.8,-,0.00,,Mostly Cloudy,330,2014-02-21 03:19:00
8:53 PM,23.0,19.0,85,29.99,10.0,NW,3.5,-,0.00,,Overcast,320,2014-02-21 03:53:00
9:53 PM,21.9,19.0,89,29.98,10.0,North,3.5,-,N/A,,Overcast,10,2014-02-21 04:53:00
10:53 PM,21.9,18.0,85,29.97,8.0,NE,3.5,-,0.00,Snow,Light Snow,50,2014-02-21 05:53:00
11:53 PM,19.9,17.1,89,29.97,10.0,Calm,Calm,-,0.00,,Mostly Cloudy,0,2014-02-21 06:53:00